createdAt,value
2023-05-18T00:00:00.009Z,59.78
2023-05-18T00:15:03.060Z,60.83
2023-05-18T00:30:06.612Z,59.02
2023-05-18T00:45:10.004Z,58.79
2023-05-18T01:00:14.125Z,60.80
2023-05-18T01:15:20.000Z,61.39
2023-05-18T01:30:23.694Z,60.96
2023-05-18T01:45:30.262Z,59.35
2023-05-18T02:00:33.518Z,59.53
2023-05-18T02:15:36.269Z,61.51
2023-05-18T02:30:38.870Z,61.34
2023-05-18T02:45:41.520Z,60.86
2023-05-18T03:00:44.483Z,60.04
2023-05-18T03:15:47.996Z,58.21
2023-05-18T03:30:50.698Z,62.33
2023-05-18T03:45:53.693Z,60.70
2023-05-18T04:00:56.627Z,56.94
2023-05-18T04:15:59.932Z,62.17
2023-05-18T04:31:02.667Z,59.62
2023-05-18T04:46:07.309Z,59.26
2023-05-18T05:01:10.312Z,59.59
2023-05-18T05:16:13.137Z,61.29
2023-05-18T05:31:15.939Z,58.50
2023-05-18T05:46:19.186Z,55.06
2023-05-18T06:01:22.198Z,54.84
2023-05-18T06:16:25.549Z,54.30
2023-05-18T06:31:30.313Z,52.83
2023-05-18T06:46:33.479Z,51.59
2023-05-18T07:01:36.953Z,50.04
2023-05-18T07:16:40.197Z,49.46
2023-05-18T07:31:43.099Z,48.33
2023-05-18T07:46:45.889Z,47.44
2023-05-18T08:01:49.397Z,45.46
2023-05-18T08:16:52.170Z,42.43
2023-05-18T08:31:55.104Z,40.18
2023-05-18T08:46:58.826Z,38.75
2023-05-18T09:02:01.875Z,38.59
2023-05-18T09:17:05.041Z,40.13
2023-05-18T09:32:10.950Z,40.67
2023-05-18T09:47:13.590Z,40.74
2023-05-18T10:02:19.449Z,40.00
2023-05-18T10:17:25.744Z,39.00
2023-05-18T10:32:30.116Z,37.91
2023-05-18T10:47:36.034Z,37.38
2023-05-18T11:02:42.727Z,38.11
2023-05-18T11:17:46.066Z,39.42
2023-05-18T11:32:52.586Z,39.70
2023-05-18T11:48:01.514Z,39.83
2023-05-18T12:03:06.515Z,41.06
2023-05-18T12:18:10.985Z,40.18
2023-05-18T12:33:13.829Z,40.09
2023-05-18T12:48:18.003Z,40.22
2023-05-18T13:03:22.927Z,41.20
2023-05-18T13:18:29.439Z,41.34
2023-05-18T13:33:34.992Z,41.33
2023-05-18T13:48:41.183Z,41.66
2023-05-18T14:19:05.811Z,42.26
2023-05-18T14:34:10.501Z,42.34
2023-05-18T14:49:18.858Z,42.65
2023-05-18T15:04:23.663Z,42.77
2023-05-18T15:19:26.460Z,42.63
2023-05-18T15:34:29.796Z,43.35
2023-05-18T15:49:32.684Z,43.51
2023-05-18T16:04:35.722Z,43.47
2023-05-18T16:19:38.352Z,44.29
2023-05-18T16:34:41.294Z,44.83
2023-05-18T16:49:45.591Z,44.70
2023-05-18T17:04:51.046Z,45.06
2023-05-18T17:19:54.588Z,45.95
2023-05-18T17:34:58.569Z,46.66
2023-05-18T17:50:01.427Z,47.86
2023-05-18T18:05:04.379Z,48.79
2023-05-18T18:20:08.048Z,49.32
2023-05-18T18:35:10.943Z,49.74
2023-05-18T18:50:13.696Z,50.24
2023-05-18T19:05:21.614Z,51.73
2023-05-18T19:20:24.506Z,52.36
2023-05-18T19:35:27.236Z,52.53
2023-05-18T19:50:30.104Z,52.13
2023-05-18T20:05:33.486Z,53.32
2023-05-18T20:20:36.319Z,57.26
2023-05-18T20:35:40.927Z,58.88
2023-05-18T20:50:44.236Z,60.33
2023-05-18T21:05:49.624Z,61.40
2023-05-18T21:20:54.906Z,60.98
2023-05-18T21:35:59.267Z,61.16
2023-05-18T21:51:03.888Z,60.91
2023-05-18T22:06:06.719Z,61.38
2023-05-18T22:21:09.311Z,58.27
2023-05-18T22:36:11.884Z,55.24
2023-05-18T22:51:15.661Z,57.91
2023-05-18T23:06:22.091Z,60.99
2023-05-18T23:21:24.756Z,57.21
2023-05-18T23:36:35.052Z,58.11
2023-05-18T23:51:38.940Z,61.72
